Datum - Zeit
Döttingen
TemperaturTaupunktFeuchteSolar Wind aus
Richtung
Windböenaus
Richtung
Luftdruck
(QFF)
RegenRegen
Stärke
19.03.2019 - 00.00Uhr0.6 °C-0.7 °C91 %0.0 W/m²0.0 km/hOst-SO0.0 km/hNorden1025.3 hPa0.0 mm0.0 mm/h
19.03.2019 - 00.05Uhr0.5 °C-0.8 °C91 %0.0 W/m²5.8 km/hOst-SO8.3 km/hOst-SO1025.2 hPa0.0 mm0.0 mm/h
19.03.2019 - 00.10Uhr0.2 °C-1.1 °C91 %0.0 W/m²4.4 km/hOst-SO8.3 km/hOst-SO1025.2 hPa0.0 mm0.0 mm/h
19.03.2019 - 00.15Uhr-0.1 °C-1.4 °C91 %0.0 W/m²2.8 km/hOst-SO8.3 km/hOst-SO1025.2 hPa0.0 mm0.0 mm/h
19.03.2019 - 00.20Uhr0.1 °C-1.2 °C91 %0.0 W/m²0.5 km/hOst-SO1.8 km/hOst-SO1025.2 hPa0.0 mm0.0 mm/h
19.03.2019 - 00.25Uhr0.2 °C-1.1 °C91 %0.0 W/m²0.6 km/hOst-SO1.8 km/hOst-SO1025.2 hPa0.0 mm0.0 mm/h
19.03.2019 - 00.30Uhr0.1 °C-1.2 °C91 %0.0 W/m²1.4 km/hOst-SO4.0 km/hOst-SO1025.2 hPa0.0 mm0.0 mm/h
19.03.2019 - 00.35Uhr0.3 °C-1.0 °C91 %0.0 W/m²1.3 km/hOst-SO4.0 km/hOst-SO1025.2 hPa0.0 mm0.0 mm/h
19.03.2019 - 00.40Uhr0.4 °C-0.9 °C91 %0.0 W/m²1.4 km/hOst-SO4.0 km/hOst-SO1025.2 hPa0.0 mm0.0 mm/h
19.03.2019 - 00.45Uhr0.3 °C-1.0 °C91 %0.0 W/m²2.4 km/hOst-SO4.0 km/hOst-SO1025.2 hPa0.0 mm0.0 mm/h
19.03.2019 - 00.50Uhr0.3 °C-1.0 °C91 %0.0 W/m²1.7 km/hOst-SO4.0 km/hOst-SO1025.2 hPa0.0 mm0.0 mm/h
19.03.2019 - 00.55Uhr0.2 °C-1.1 °C91 %0.0 W/m²0.0 km/hOst-SO0.0 km/hNorden1025.1 hPa0.0 mm0.0 mm/h
19.03.2019 - 01.00Uhr-0.0 °C-1.3 °C91 %0.0 W/m²0.0 km/hOst-SO0.0 km/hNorden1025.2 hPa0.0 mm0.0 mm/h
19.03.2019 - 01.05Uhr-0.1 °C-1.4 °C91 %0.0 W/m²0.0 km/hOst-SO0.0 km/hNorden1025.2 hPa0.0 mm0.0 mm/h
19.03.2019 - 01.10Uhr0.1 °C-1.2 °C91 %0.0 W/m²0.0 km/hOst-SO0.0 km/hNorden1025.2 hPa0.0 mm0.0 mm/h
19.03.2019 - 01.15Uhr0.1 °C-1.2 °C91 %0.0 W/m²0.0 km/hOst-SO0.0 km/hNorden1025.2 hPa0.0 mm0.0 mm/h
19.03.2019 - 01.20Uhr-0.0 °C-1.3 °C91 %0.0 W/m²0.0 km/hOst-SO0.0 km/hNorden1025.2 hPa0.0 mm0.0 mm/h
19.03.2019 - 01.25Uhr-0.1 °C-1.4 °C91 %0.0 W/m²0.0 km/hOst-SO0.0 km/hNorden1025.3 hPa0.0 mm0.0 mm/h
19.03.2019 - 01.30Uhr-0.3 °C-1.6 °C91 %0.0 W/m²1.2 km/hOst-SO4.0 km/hOst-SO1025.3 hPa0.0 mm0.0 mm/h
19.03.2019 - 01.35Uhr-0.3 °C-1.6 °C91 %0.0 W/m²0.6 km/hOst-SO1.8 km/hOst-SO1025.3 hPa0.0 mm0.0 mm/h
19.03.2019 - 01.40Uhr-0.2 °C-1.5 °C91 %0.0 W/m²0.0 km/hOst-SO0.0 km/hNorden1025.2 hPa0.0 mm0.0 mm/h
19.03.2019 - 01.45Uhr-0.2 °C-1.5 °C91 %0.0 W/m²0.0 km/hOst-SO0.0 km/hNorden1025.3 hPa0.0 mm0.0 mm/h
19.03.2019 - 01.50Uhr-0.1 °C-1.4 °C91 %0.0 W/m²0.0 km/hOst-SO0.0 km/hNorden1025.2 hPa0.0 mm0.0 mm/h
19.03.2019 - 01.55Uhr-0.2 °C-1.5 °C91 %0.0 W/m²0.0 km/hOst-SO0.0 km/hNorden1025.2 hPa0.0 mm0.0 mm/h
19.03.2019 - 02.00Uhr-0.1 °C-1.4 °C91 %0.0 W/m²0.0 km/hOst-SO0.0 km/hNorden1025.2 hPa0.0 mm0.0 mm/h
19.03.2019 - 02.05Uhr0.1 °C-1.2 °C91 %0.0 W/m²0.0 km/hOst-SO0.0 km/hNorden1025.2 hPa0.0 mm0.0 mm/h
19.03.2019 - 02.10Uhr0.1 °C-1.1 °C91 %0.0 W/m²0.3 km/hOst-SO1.8 km/hOst-SO1025.2 hPa0.0 mm0.0 mm/h
19.03.2019 - 02.15Uhr0.2 °C-1.1 °C91 %0.0 W/m²0.0 km/hOst-SO0.0 km/hNorden1025.2 hPa0.0 mm0.0 mm/h
19.03.2019 - 02.20Uhr0.1 °C-1.2 °C91 %0.0 W/m²0.0 km/hOst-SO0.0 km/hNorden1025.2 hPa0.0 mm0.0 mm/h
19.03.2019 - 02.25Uhr0.2 °C-1.1 °C91 %0.0 W/m²0.2 km/hOst-SO1.8 km/hOst-SO1025.2 hPa0.0 mm0.0 mm/h
19.03.2019 - 02.30Uhr0.2 °C-1.1 °C91 %0.0 W/m²0.0 km/hOst-SO0.0 km/hNorden1025.2 hPa0.0 mm0.0 mm/h
19.03.2019 - 02.35Uhr0.1 °C-1.1 °C91 %0.0 W/m²0.0 km/hOst-SO0.0 km/hNorden1025.2 hPa0.0 mm0.0 mm/h
19.03.2019 - 02.40Uhr0.1 °C-1.2 °C91 %0.0 W/m²0.0 km/hOst-SO0.0 km/hNorden1025.2 hPa0.0 mm0.0 mm/h
19.03.2019 - 02.45Uhr0.1 °C-1.2 °C91 %0.0 W/m²0.0 km/hOst-SO0.0 km/hNorden1025.2 hPa0.0 mm0.0 mm/h
19.03.2019 - 02.50Uhr0.1 °C-1.2 °C91 %0.0 W/m²0.0 km/hOst-SO0.0 km/hNorden1025.1 hPa0.0 mm0.0 mm/h
19.03.2019 - 02.55Uhr-0.0 °C-1.3 °C91 %0.0 W/m²0.0 km/hOst-SO0.0 km/hNorden1025.2 hPa0.0 mm0.0 mm/h
19.03.2019 - 03.00Uhr-0.1 °C-1.4 °C91 %0.0 W/m²0.0 km/hOst-SO0.0 km/hNorden1025.2 hPa0.0 mm0.0 mm/h
19.03.2019 - 03.05Uhr0.0 °C-1.3 °C91 %0.0 W/m²0.0 km/hOst-SO0.0 km/hNorden1025.2 hPa0.0 mm0.0 mm/h
19.03.2019 - 03.10Uhr0.0 °C-1.3 °C91 %0.0 W/m²0.0 km/hOst-SO0.0 km/hNorden1025.3 hPa0.0 mm0.0 mm/h
19.03.2019 - 03.15Uhr-0.1 °C-1.4 °C91 %0.0 W/m²0.0 km/hOst-SO0.0 km/hNorden1025.3 hPa0.0 mm0.0 mm/h
19.03.2019 - 03.20Uhr-0.1 °C-1.4 °C91 %0.0 W/m²0.4 km/hOst-SO1.8 km/hOst-SO1025.3 hPa0.0 mm0.0 mm/h
19.03.2019 - 03.25Uhr0.0 °C-1.3 °C91 %0.0 W/m²0.0 km/hOst-SO0.0 km/hNorden1025.2 hPa0.0 mm0.0 mm/h
19.03.2019 - 03.30Uhr0.1 °C-1.2 °C91 %0.0 W/m²0.0 km/hOst-SO0.0 km/hNorden1025.3 hPa0.0 mm0.0 mm/h
19.03.2019 - 03.35Uhr0.1 °C-1.2 °C91 %0.0 W/m²0.0 km/hOst-SO0.0 km/hNorden1025.3 hPa0.0 mm0.0 mm/h
19.03.2019 - 03.40Uhr0.1 °C-1.2 °C91 %0.0 W/m²0.0 km/hOst-SO0.0 km/hNorden1025.3 hPa0.0 mm0.0 mm/h
19.03.2019 - 03.45Uhr0.1 °C-1.2 °C91 %0.0 W/m²0.0 km/hOst-SO0.0 km/hNorden1025.3 hPa0.0 mm0.0 mm/h
19.03.2019 - 03.50Uhr0.1 °C-1.2 °C91 %0.0 W/m²0.0 km/hOst-SO0.0 km/hNorden1025.3 hPa0.0 mm0.0 mm/h
19.03.2019 - 03.55Uhr0.1 °C-1.2 °C91 %0.0 W/m²0.0 km/hOst-SO0.0 km/hNorden1025.3 hPa0.0 mm0.0 mm/h
19.03.2019 - 04.00Uhr0.1 °C-1.2 °C91 %0.0 W/m²0.0 km/hOst-SO0.0 km/hNorden1025.3 hPa0.0 mm0.0 mm/h
19.03.2019 - 04.05Uhr0.2 °C-1.2 °C91 %0.0 W/m²0.0 km/hOst-SO0.0 km/hNorden1025.3 hPa0.0 mm0.0 mm/h
19.03.2019 - 04.10Uhr0.2 °C-1.2 °C90 %0.0 W/m²0.0 km/hOst-SO0.0 km/hNorden1025.4 hPa0.0 mm0.0 mm/h
19.03.2019 - 04.15Uhr0.2 °C-1.2 °C90 %0.0 W/m²0.8 km/hOst-SO4.0 km/hOst-SO1025.4 hPa0.0 mm0.0 mm/h
19.03.2019 - 04.20Uhr0.1 °C-1.2 °C91 %0.0 W/m²0.7 km/hOst-SO1.8 km/hOst-SO1025.5 hPa0.0 mm0.0 mm/h
19.03.2019 - 04.25Uhr0.1 °C-1.2 °C91 %0.0 W/m²0.0 km/hOst-SO0.0 km/hNorden1025.5 hPa0.0 mm0.0 mm/h
19.03.2019 - 04.30Uhr0.0 °C-1.3 °C91 %0.0 W/m²0.0 km/hOst-SO0.0 km/hNorden1025.5 hPa0.0 mm0.0 mm/h
19.03.2019 - 04.35Uhr0.2 °C-1.2 °C90 %0.0 W/m²0.0 km/hOst-SO0.0 km/hNorden1025.4 hPa0.0 mm0.0 mm/h
19.03.2019 - 04.40Uhr0.2 °C-1.2 °C90 %0.0 W/m²1.1 km/hOst-SO4.0 km/hOst-SO1025.5 hPa0.0 mm0.0 mm/h
19.03.2019 - 04.45Uhr0.2 °C-1.2 °C90 %0.0 W/m²0.3 km/hOst-SO1.8 km/hOst-SO1025.6 hPa0.0 mm0.0 mm/h
19.03.2019 - 04.50Uhr0.1 °C-1.3 °C90 %0.0 W/m²1.8 km/hOst-SO4.0 km/hOst-SO1025.7 hPa0.0 mm0.0 mm/h
19.03.2019 - 04.55Uhr0.1 °C-1.3 °C90 %0.0 W/m²0.4 km/hOst-SO1.8 km/hOst-SO1025.6 hPa0.0 mm0.0 mm/h
19.03.2019 - 05.00Uhr0.1 °C-1.3 °C90 %0.0 W/m²0.0 km/hOst-SO0.0 km/hNorden1025.6 hPa0.0 mm0.0 mm/h
19.03.2019 - 05.05Uhr0.0 °C-1.3 °C91 %0.0 W/m²0.4 km/hOst-SO1.8 km/hOst-SO1025.6 hPa0.0 mm0.0 mm/h
19.03.2019 - 05.10Uhr-0.1 °C-1.5 °C90 %0.0 W/m²0.9 km/hOst-SO4.0 km/hOst-SO1025.6 hPa0.0 mm0.0 mm/h
19.03.2019 - 05.15Uhr-0.1 °C-1.5 °C90 %0.0 W/m²0.0 km/hOst-SO0.0 km/hNorden1025.7 hPa0.0 mm0.0 mm/h
19.03.2019 - 05.20Uhr-0.1 °C-1.5 °C90 %0.0 W/m²0.0 km/hOst-SO0.0 km/hNorden1025.7 hPa0.0 mm0.0 mm/h
19.03.2019 - 05.25Uhr-0.2 °C-1.6 °C90 %0.0 W/m²0.0 km/hOst-SO0.0 km/hNorden1025.7 hPa0.0 mm0.0 mm/h
19.03.2019 - 05.30Uhr-0.2 °C-1.6 °C90 %0.0 W/m²0.7 km/hOst-SO1.8 km/hOst-SO1025.7 hPa0.0 mm0.0 mm/h
19.03.2019 - 05.35Uhr-0.2 °C-1.6 °C90 %0.0 W/m²1.7 km/hOst-SO4.0 km/hOst-SO1025.7 hPa0.0 mm0.0 mm/h
19.03.2019 - 05.40Uhr-0.2 °C-1.6 °C90 %0.0 W/m²2.3 km/hOst-SO8.3 km/hOst-SO1025.7 hPa0.0 mm0.0 mm/h
19.03.2019 - 05.45Uhr-0.3 °C-1.6 °C91 %0.0 W/m²0.2 km/hOst-SO1.8 km/hOst-SO1025.8 hPa0.0 mm0.0 mm/h
19.03.2019 - 05.50Uhr-0.4 °C-1.7 °C90 %0.0 W/m²0.0 km/hOst-SO0.0 km/hNorden1025.9 hPa0.0 mm0.0 mm/h
19.03.2019 - 05.55Uhr-0.3 °C-1.6 °C91 %0.0 W/m²0.0 km/hOst-SO0.0 km/hNorden1025.9 hPa0.0 mm0.0 mm/h
19.03.2019 - 06.00Uhr-0.3 °C-1.6 °C91 %0.0 W/m²1.0 km/hOst-SO4.0 km/hOst-SO1026.0 hPa0.0 mm0.0 mm/h
19.03.2019 - 06.05Uhr-0.4 °C-1.7 °C91 %0.0 W/m²0.7 km/hOst-SO1.8 km/hOst-SO1026.0 hPa0.0 mm0.0 mm/h
19.03.2019 - 06.10Uhr-0.3 °C-1.6 °C91 %0.0 W/m²1.2 km/hOst-SO4.0 km/hOst-SO1026.0 hPa0.0 mm0.0 mm/h
19.03.2019 - 06.15Uhr-0.4 °C-1.8 °C90 %0.0 W/m²1.0 km/hOst-SO4.0 km/hOst-SO1026.1 hPa0.0 mm0.0 mm/h
19.03.2019 - 06.20Uhr-0.4 °C-1.7 °C91 %0.0 W/m²0.0 km/hOst-SO0.0 km/hNorden1026.2 hPa0.0 mm0.0 mm/h
19.03.2019 - 06.25Uhr-0.4 °C-1.7 °C91 %0.0 W/m²0.3 km/hOst-SO1.8 km/hOst-SO1026.4 hPa0.0 mm0.0 mm/h
19.03.2019 - 06.30Uhr-0.5 °C-1.9 °C90 %0.0 W/m²0.0 km/hOst-SO0.0 km/hNorden1026.5 hPa0.0 mm0.0 mm/h
19.03.2019 - 06.35Uhr-0.5 °C-1.9 °C90 %0.0 W/m²0.0 km/hOst-SO0.0 km/hNorden1026.5 hPa0.0 mm0.0 mm/h
19.03.2019 - 06.40Uhr-0.4 °C-1.8 °C90 %0.0 W/m²0.0 km/hOst-SO0.0 km/hNorden1026.4 hPa0.0 mm0.0 mm/h
19.03.2019 - 06.45Uhr-0.4 °C-1.7 °C91 %5.0 W/m²2.2 km/hOst-SO4.0 km/hOst-SO1026.5 hPa0.0 mm0.0 mm/h
19.03.2019 - 06.50Uhr-0.4 °C-1.7 °C91 %7.0 W/m²2.5 km/hOst-SO8.3 km/hOst-SO1026.5 hPa0.0 mm0.0 mm/h
19.03.2019 - 06.55Uhr-0.4 °C-1.7 °C91 %9.0 W/m²0.3 km/hOst-SO1.8 km/hOst-SO1026.6 hPa0.0 mm0.0 mm/h
19.03.2019 - 07.00Uhr-0.2 °C-1.6 °C91 %12.0 W/m²1.9 km/hOst-SO4.0 km/hOst-SO1026.8 hPa0.0 mm0.0 mm/h
19.03.2019 - 07.05Uhr-0.3 °C-1.6 °C91 %14.0 W/m²2.9 km/hOst-SO8.3 km/hOst-SO1026.8 hPa0.0 mm0.0 mm/h
19.03.2019 - 07.10Uhr-0.3 °C-1.6 °C91 %18.0 W/m²1.6 km/hOst-SO4.0 km/hOst-SO1026.8 hPa0.0 mm0.0 mm/h